createdAt,value
2023-05-22T00:00:16.640Z,100928.72
2023-05-22T00:03:06.839Z,100934.47
2023-05-22T00:05:39.426Z,100924.22
2023-05-22T00:08:11.681Z,100936.38
2023-05-22T00:10:40.960Z,100927.09
2023-05-22T00:13:10.008Z,100923.81
2023-05-22T00:15:38.992Z,100927.53
2023-05-22T00:18:09.333Z,100925.97
2023-05-22T00:20:39.263Z,100919.09
2023-05-22T00:23:10.449Z,100923.75
2023-05-22T00:25:41.229Z,100926.94
2023-05-22T00:28:10.054Z,100919.13
2023-05-22T00:30:39.708Z,100917.03
2023-05-22T00:33:10.056Z,100920.00
2023-05-22T00:35:39.085Z,100917.59
2023-05-22T00:38:09.451Z,100914.09
2023-05-22T00:40:38.818Z,100913.59
2023-05-22T00:43:09.364Z,100907.44
2023-05-22T00:45:38.818Z,100919.59
2023-05-22T00:48:09.725Z,100919.91
2023-05-22T00:50:38.971Z,100917.38
2023-05-22T00:53:09.165Z,100911.25
2023-05-22T00:55:38.579Z,100919.50
2023-05-22T00:58:10.696Z,100910.84
2023-05-22T01:00:42.892Z,100914.78
2023-05-22T01:03:13.336Z,100916.44
2023-05-22T01:05:43.072Z,100915.50
2023-05-22T01:08:12.662Z,100917.84
2023-05-22T01:10:43.073Z,100917.19
2023-05-22T01:13:30.276Z,100916.03
2023-05-22T01:16:11.960Z,100918.47
2023-05-22T01:18:52.616Z,100924.06
2023-05-22T01:21:32.944Z,100914.66
2023-05-22T01:25:07.719Z,100915.59
2023-05-22T01:28:04.076Z,100916.47
2023-05-22T01:31:02.027Z,100917.72
2023-05-22T01:33:41.582Z,100925.09
2023-05-22T01:36:14.023Z,100920.16
2023-05-22T01:38:44.379Z,100924.06
2023-05-22T01:41:13.629Z,100916.44
2023-05-22T01:43:44.182Z,100918.44
2023-05-22T01:46:14.372Z,100921.09
2023-05-22T01:48:44.042Z,100922.13
2023-05-22T01:51:21.366Z,100921.59
2023-05-22T01:54:00.741Z,100919.16
2023-05-22T01:56:40.337Z,100917.50
2023-05-22T01:59:20.960Z,100921.25
2023-05-22T02:01:53.903Z,100913.78
2023-05-22T02:04:25.515Z,100923.47
2023-05-22T02:06:55.806Z,100923.47
2023-05-22T02:09:28.979Z,100923.78
2023-05-22T02:11:59.191Z,100927.38
2023-05-22T02:14:31.311Z,100924.09
2023-05-22T02:17:02.217Z,100921.47
2023-05-22T02:19:31.395Z,100921.34
2023-05-22T02:22:00.789Z,100928.22
2023-05-22T02:24:31.237Z,100923.78
2023-05-22T02:26:59.974Z,100919.75
2023-05-22T02:29:29.005Z,100918.09
2023-05-22T02:31:58.345Z,100918.47
2023-05-22T02:34:31.731Z,100912.47
2023-05-22T02:37:01.007Z,100911.09
2023-05-22T02:39:30.231Z,100914.47
2023-05-22T02:41:59.043Z,100914.66
2023-05-22T02:44:28.161Z,100905.19
2023-05-22T02:46:57.190Z,100912.03
2023-05-22T02:49:26.428Z,100907.81
2023-05-22T02:51:56.607Z,100906.41
2023-05-22T02:54:26.135Z,100907.47
2023-05-22T02:56:54.875Z,100909.25
2023-05-22T02:59:24.080Z,100907.56
2023-05-22T03:01:54.589Z,100908.09
2023-05-22T03:04:25.806Z,100901.13
2023-05-22T03:06:55.938Z,100891.56
2023-05-22T03:09:25.212Z,100900.19
2023-05-22T03:11:53.966Z,100897.66
2023-05-22T03:14:23.754Z,100894.81
2023-05-22T03:16:54.748Z,100889.34
2023-05-22T03:19:24.904Z,100892.72
2023-05-22T03:21:54.306Z,100894.41
2023-05-22T03:24:27.164Z,100884.91
2023-05-22T03:26:56.153Z,100891.03
2023-05-22T03:29:38.928Z,100894.19
2023-05-22T03:32:08.489Z,100887.56
2023-05-22T03:34:38.132Z,100881.69
2023-05-22T03:37:10.499Z,100886.53
2023-05-22T03:39:40.919Z,100884.22
2023-05-22T03:42:20.812Z,100884.66
2023-05-22T03:44:50.166Z,100886.25
2023-05-22T03:47:20.187Z,100889.00
2023-05-22T03:49:49.242Z,100888.13
2023-05-22T03:52:18.067Z,100892.34
2023-05-22T03:54:48.504Z,100879.06
2023-05-22T03:57:19.960Z,100891.44
2023-05-22T03:59:49.147Z,100896.31
2023-05-22T04:02:18.657Z,100893.00
2023-05-22T04:04:47.862Z,100895.88
2023-05-22T04:07:18.503Z,100894.16
2023-05-22T04:09:49.079Z,100898.06
2023-05-22T04:12:17.872Z,100898.25
2023-05-22T04:14:46.912Z,100899.28
2023-05-22T04:17:16.084Z,100894.91
2023-05-22T04:19:45.148Z,100890.41
2023-05-22T04:22:13.879Z,100890.38
2023-05-22T04:24:42.903Z,100887.53
2023-05-22T04:27:13.186Z,100883.66
2023-05-22T04:29:44.986Z,100881.91
2023-05-22T04:32:18.057Z,100881.47
2023-05-22T04:34:51.173Z,100881.38
2023-05-22T04:37:21.028Z,100878.28
2023-05-22T04:39:53.528Z,100880.22
2023-05-22T04:42:25.259Z,100879.97
2023-05-22T04:44:54.374Z,100878.88
2023-05-22T04:47:23.142Z,100881.66
2023-05-22T04:49:52.702Z,100884.31
2023-05-22T04:52:21.442Z,100884.31
2023-05-22T04:54:52.246Z,100885.13
2023-05-22T04:57:22.082Z,100887.78
2023-05-22T04:59:53.619Z,100885.44
2023-05-22T05:02:22.480Z,100884.31
2023-05-22T05:04:51.561Z,100886.53
2023-05-22T05:07:20.234Z,100883.69
2023-05-22T05:09:49.299Z,100886.66
2023-05-22T05:12:18.547Z,100890.94
2023-05-22T05:14:47.636Z,100879.88
2023-05-22T05:17:18.827Z,100883.72
2023-05-22T05:19:47.812Z,100892.06
2023-05-22T05:22:16.602Z,100892.97
2023-05-22T05:24:45.680Z,100893.47
2023-05-22T05:27:15.269Z,100904.00
2023-05-22T05:29:44.387Z,100892.13
2023-05-22T05:32:31.865Z,100893.00
2023-05-22T05:35:26.876Z,100887.00
2023-05-22T05:38:10.950Z,100890.66
2023-05-22T05:40:42.421Z,100903.81
2023-05-22T05:43:15.274Z,100896.31
2023-05-22T05:45:44.908Z,100895.50
2023-05-22T05:48:15.235Z,100898.00
2023-05-22T05:50:47.026Z,100897.44
2023-05-22T05:53:17.445Z,100901.09
2023-05-22T05:55:52.120Z,100895.34
2023-05-22T05:58:21.882Z,100897.38
2023-05-22T06:01:14.388Z,100906.31
2023-05-22T06:03:44.798Z,100898.06
2023-05-22T06:06:26.091Z,100900.25
2023-05-22T06:09:13.413Z,100891.91
2023-05-22T06:12:01.525Z,100901.56
2023-05-22T06:14:30.756Z,100895.88
2023-05-22T06:17:00.656Z,100889.31
2023-05-22T06:19:30.958Z,100884.75
2023-05-22T06:22:00.668Z,100886.97
2023-05-22T06:24:31.978Z,100886.75
2023-05-22T06:27:05.657Z,100880.28
2023-05-22T06:29:34.507Z,100875.16
2023-05-22T06:32:03.722Z,100877.13
2023-05-22T06:34:34.067Z,100874.56
2023-05-22T06:37:04.413Z,100875.28
2023-05-22T06:39:39.239Z,100887.91
2023-05-22T06:42:13.042Z,100884.88
2023-05-22T06:45:09.337Z,100883.13
2023-05-22T06:47:48.975Z,100878.44
2023-05-22T06:50:19.201Z,100883.97
2023-05-22T06:52:48.996Z,100881.47
2023-05-22T06:55:18.623Z,100883.06
2023-05-22T06:58:03.994Z,100880.13
2023-05-22T07:00:35.737Z,100866.56
2023-05-22T07:03:16.668Z,100871.56
2023-05-22T07:06:06.304Z,100871.69
2023-05-22T07:08:36.099Z,100866.72
2023-05-22T07:11:06.943Z,100874.75
2023-05-22T07:13:36.582Z,100877.59
2023-05-22T07:16:06.584Z,100871.75
2023-05-22T07:18:37.039Z,100865.00
2023-05-22T07:21:07.918Z,100869.31
2023-05-22T07:23:37.983Z,100872.00
2023-05-22T07:26:09.804Z,100871.66
2023-05-22T07:28:44.849Z,100869.00
2023-05-22T07:31:16.425Z,100867.69
2023-05-22T07:33:46.729Z,100872.72
2023-05-22T07:36:19.129Z,100865.84
2023-05-22T07:38:48.718Z,100869.06
2023-05-22T07:41:17.456Z,100861.50
2023-05-22T07:43:46.959Z,100860.31
2023-05-22T07:46:18.910Z,100865.94
2023-05-22T07:49:00.389Z,100857.81
2023-05-22T07:51:31.329Z,100865.22
2023-05-22T07:54:00.713Z,100863.94
2023-05-22T07:56:30.772Z,100862.00
2023-05-22T07:59:01.203Z,100856.75
2023-05-22T08:01:30.192Z,100859.25
2023-05-22T08:03:59.331Z,100856.50
2023-05-22T08:06:32.044Z,100862.69
2023-05-22T08:09:01.189Z,100858.84
2023-05-22T08:11:30.075Z,100861.78
2023-05-22T08:13:59.302Z,100859.59
2023-05-22T08:16:28.138Z,100857.75
2023-05-22T08:18:57.171Z,100855.09
2023-05-22T08:21:25.934Z,100856.00
2023-05-22T08:23:56.342Z,100854.88
2023-05-22T08:26:27.207Z,100846.25
2023-05-22T08:28:56.457Z,100846.47
2023-05-22T08:31:25.196Z,100855.38
2023-05-22T08:33:54.292Z,100848.56
2023-05-22T08:36:24.710Z,100849.94
2023-05-22T08:38:55.076Z,100850.66
2023-05-22T08:41:23.893Z,100845.06
2023-05-22T08:43:53.081Z,100837.50
2023-05-22T08:46:26.351Z,100834.06
2023-05-22T08:48:59.048Z,100834.13
2023-05-22T08:51:31.604Z,100839.88
2023-05-22T08:54:07.607Z,100836.06
2023-05-22T08:56:39.819Z,100831.25
2023-05-22T08:59:15.295Z,100838.28
2023-05-22T09:01:44.267Z,100843.56
2023-05-22T09:04:14.474Z,100834.22
2023-05-22T09:06:43.389Z,100827.72
2023-05-22T09:09:13.832Z,100823.56
2023-05-22T09:11:42.652Z,100820.59
2023-05-22T09:14:12.666Z,100814.84
2023-05-22T09:16:49.494Z,100815.47
2023-05-22T09:19:18.982Z,100816.50
2023-05-22T09:21:48.311Z,100811.19
2023-05-22T09:24:18.723Z,100808.53
2023-05-22T09:26:48.349Z,100805.13
2023-05-22T09:29:17.386Z,100807.72
2023-05-22T09:31:46.511Z,100806.31
2023-05-22T09:34:18.385Z,100806.25
2023-05-22T09:36:47.245Z,100799.75
2023-05-22T09:39:16.295Z,100797.06
2023-05-22T09:41:46.647Z,100796.59
2023-05-22T09:44:17.047Z,100793.63
2023-05-22T09:46:48.354Z,100795.47
2023-05-22T09:49:17.842Z,100792.06
2023-05-22T09:51:48.983Z,100792.78
2023-05-22T09:54:21.740Z,100791.75
2023-05-22T09:56:56.070Z,100797.59
2023-05-22T09:59:31.530Z,100793.25
2023-05-22T10:02:02.131Z,100794.47
2023-05-22T10:04:35.800Z,100785.94
2023-05-22T10:07:05.556Z,100786.56
2023-05-22T10:09:40.856Z,100787.53
2023-05-22T10:12:16.504Z,100788.03
2023-05-22T10:14:46.091Z,100792.78
2023-05-22T10:17:16.969Z,100789.72
2023-05-22T10:19:48.139Z,100786.19
2023-05-22T10:22:20.982Z,100784.63
2023-05-22T10:24:51.382Z,100785.75
2023-05-22T10:27:21.495Z,100783.31
2023-05-22T10:29:58.268Z,100780.38
2023-05-22T10:32:41.649Z,100783.31
2023-05-22T10:35:21.613Z,100783.75
2023-05-22T10:37:56.628Z,100780.53
2023-05-22T10:40:31.110Z,100777.72
2023-05-22T10:43:04.111Z,100776.59
2023-05-22T10:45:33.506Z,100773.25
2023-05-22T10:48:11.558Z,100770.91
2023-05-22T10:50:51.115Z,100772.50
2023-05-22T10:53:22.359Z,100769.81
2023-05-22T10:55:53.123Z,100763.50
2023-05-22T10:58:31.374Z,100767.69
2023-05-22T11:01:15.199Z,100757.91
2023-05-22T11:03:54.564Z,100759.84
2023-05-22T11:06:41.348Z,100757.94
2023-05-22T11:09:30.647Z,100756.88
2023-05-22T11:12:27.461Z,100762.13
2023-05-22T11:15:01.456Z,100761.72
2023-05-22T11:17:32.411Z,100758.41
2023-05-22T11:20:05.520Z,100752.28
2023-05-22T11:22:40.888Z,100750.78
2023-05-22T11:25:13.035Z,100742.91
2023-05-22T11:27:42.801Z,100739.16
2023-05-22T11:30:15.071Z,100740.81
2023-05-22T11:32:47.996Z,100736.34
2023-05-22T11:35:18.945Z,100724.69
2023-05-22T11:37:49.858Z,100723.50
2023-05-22T11:40:21.236Z,100719.34
2023-05-22T11:42:50.610Z,100720.88
2023-05-22T11:45:21.425Z,100718.38
2023-05-22T11:47:51.024Z,100727.81
2023-05-22T11:50:33.618Z,100719.28
2023-05-22T11:53:09.404Z,100724.31
2023-05-22T11:55:38.256Z,100714.09
2023-05-22T11:58:07.347Z,100721.44
2023-05-22T12:00:37.776Z,100724.91
2023-05-22T12:03:08.083Z,100717.75
2023-05-22T12:05:38.052Z,100708.63
2023-05-22T12:08:07.365Z,100716.06
2023-05-22T12:10:36.294Z,100701.81
2023-05-22T12:13:05.629Z,100703.91
2023-05-22T12:15:34.523Z,100703.97
2023-05-22T12:18:09.254Z,100702.22
2023-05-22T12:20:44.096Z,100700.00
2023-05-22T12:23:13.770Z,100693.50
2023-05-22T12:25:42.904Z,100697.41
2023-05-22T12:28:12.324Z,100694.22
2023-05-22T12:30:42.731Z,100692.31
2023-05-22T12:33:16.685Z,100687.22
2023-05-22T12:35:45.458Z,100680.72
2023-05-22T12:38:14.621Z,100684.38
2023-05-22T12:40:43.434Z,100678.22
2023-05-22T12:43:13.067Z,100678.94
2023-05-22T12:45:42.437Z,100677.38
2023-05-22T12:48:11.974Z,100682.97
2023-05-22T12:50:42.480Z,100671.94
2023-05-22T12:53:12.079Z,100675.91
2023-05-22T12:55:41.268Z,100676.91
2023-05-22T12:58:10.535Z,100673.66
2023-05-22T13:00:39.643Z,100666.03
2023-05-22T13:03:12.102Z,100670.97
2023-05-22T13:05:42.593Z,100666.38
2023-05-22T13:08:12.365Z,100665.53
2023-05-22T13:10:41.253Z,100666.94
2023-05-22T13:13:10.364Z,100666.66
2023-05-22T13:15:39.222Z,100655.84
2023-05-22T13:18:08.622Z,100660.28
2023-05-22T13:20:38.666Z,100657.88
2023-05-22T13:23:09.427Z,100658.31
2023-05-22T13:25:38.924Z,100658.97
2023-05-22T13:28:08.113Z,100656.91
2023-05-22T13:30:36.939Z,100653.13
2023-05-22T13:33:06.138Z,100650.50
2023-05-22T13:35:34.927Z,100653.94
2023-05-22T13:38:04.162Z,100662.38
2023-05-22T13:40:34.398Z,100650.88
2023-05-22T13:43:03.554Z,100643.47
2023-05-22T13:45:32.525Z,100640.13
2023-05-22T13:48:01.652Z,100641.91
2023-05-22T13:50:30.460Z,100638.41
2023-05-22T13:52:59.541Z,100647.78
2023-05-22T13:55:28.302Z,100630.06
2023-05-22T13:57:58.909Z,100642.31
2023-05-22T14:00:27.761Z,100634.00
2023-05-22T14:02:57.007Z,100626.41
2023-05-22T14:05:26.249Z,100628.56
2023-05-22T14:07:58.380Z,100624.13
2023-05-22T14:10:27.333Z,100628.59
2023-05-22T14:12:57.901Z,100627.00
2023-05-22T14:15:27.015Z,100623.84
2023-05-22T14:17:56.252Z,100621.03
2023-05-22T14:20:25.180Z,100615.75
2023-05-22T14:22:57.493Z,100621.34
2023-05-22T14:25:27.572Z,100618.19
2023-05-22T14:27:58.282Z,100618.94
2023-05-22T14:30:27.273Z,100617.53
2023-05-22T14:32:56.390Z,100617.63
2023-05-22T14:35:25.191Z,100614.66
2023-05-22T14:37:54.236Z,100616.34
2023-05-22T14:40:22.984Z,100604.19
2023-05-22T14:42:54.181Z,100599.88
2023-05-22T14:45:24.848Z,100611.53
2023-05-22T14:47:54.029Z,100602.72
2023-05-22T14:50:22.953Z,100599.69
2023-05-22T14:52:52.136Z,100602.81
2023-05-22T14:55:21.782Z,100592.16
2023-05-22T14:57:50.933Z,100605.88
2023-05-22T15:00:20.238Z,100592.63
2023-05-22T15:02:50.646Z,100599.69
2023-05-22T15:05:19.677Z,100584.47
2023-05-22T15:07:51.249Z,100593.00
2023-05-22T15:10:20.789Z,100588.94
2023-05-22T15:12:49.833Z,100588.09
2023-05-22T15:15:18.817Z,100591.53
2023-05-22T15:17:48.124Z,100586.81
2023-05-22T15:20:18.602Z,100584.94
2023-05-22T15:22:48.021Z,100583.09
2023-05-22T15:25:16.860Z,100589.41
2023-05-22T15:27:46.034Z,100575.03
2023-05-22T15:30:16.968Z,100581.06
2023-05-22T15:32:46.360Z,100581.34
2023-05-22T15:35:15.250Z,100576.69
2023-05-22T15:37:45.586Z,100572.81
2023-05-22T15:40:18.297Z,100573.75
2023-05-22T15:42:47.362Z,100568.00
2023-05-22T15:45:19.209Z,100561.72
2023-05-22T15:47:48.374Z,100561.44
2023-05-22T15:50:17.276Z,100559.56
2023-05-22T15:52:47.770Z,100560.50
2023-05-22T15:55:16.748Z,100549.97
2023-05-22T15:57:45.964Z,100553.75
2023-05-22T16:00:18.366Z,100552.91
2023-05-22T16:02:47.904Z,100545.97
2023-05-22T16:05:16.992Z,100552.91
2023-05-22T16:07:47.793Z,100553.06
2023-05-22T16:10:16.631Z,100544.75
2023-05-22T16:12:45.735Z,100546.44
2023-05-22T16:15:14.681Z,100546.06
2023-05-22T16:17:43.835Z,100545.78
2023-05-22T16:20:12.850Z,100542.72
2023-05-22T16:25:19.023Z,100537.72
2023-05-22T16:27:48.115Z,100532.03
2023-05-22T16:30:18.301Z,100523.47
2023-05-22T16:32:48.132Z,100529.34
2023-05-22T16:35:19.635Z,100536.34
2023-05-22T16:37:48.939Z,100528.97
2023-05-22T16:40:19.425Z,100532.00
2023-05-22T16:42:57.376Z,100532.34
2023-05-22T16:45:28.852Z,100533.19
2023-05-22T16:47:57.952Z,100535.03
2023-05-22T16:50:27.231Z,100537.06
2023-05-22T16:52:56.271Z,100537.59
2023-05-22T16:55:26.409Z,100535.09
2023-05-22T16:57:55.661Z,100529.44
2023-05-22T17:00:24.534Z,100535.84
2023-05-22T17:02:54.049Z,100533.50
2023-05-22T17:05:24.179Z,100541.09
2023-05-22T17:07:53.266Z,100540.13
2023-05-22T17:10:22.153Z,100543.81
2023-05-22T17:12:52.638Z,100554.53
2023-05-22T17:15:21.562Z,100548.41
2023-05-22T17:17:50.843Z,100550.13
2023-05-22T17:20:22.152Z,100547.97
2023-05-22T17:22:51.458Z,100550.56
2023-05-22T17:25:21.098Z,100547.56
2023-05-22T17:27:50.303Z,100554.13
2023-05-22T17:30:20.743Z,100549.94
2023-05-22T17:32:50.152Z,100554.00
2023-05-22T17:35:18.996Z,100547.44
2023-05-22T17:37:48.138Z,100544.31
2023-05-22T17:40:17.312Z,100536.81
2023-05-22T17:42:47.268Z,100548.41
2023-05-22T17:45:16.197Z,100546.06
2023-05-22T17:47:47.071Z,100541.44
2023-05-22T17:50:16.204Z,100542.94
2023-05-22T17:52:45.320Z,100536.41
2023-05-22T17:55:14.311Z,100540.63
2023-05-22T17:57:43.458Z,100535.28
2023-05-22T18:00:14.653Z,100530.63
2023-05-22T18:02:44.326Z,100529.63
2023-05-22T18:05:14.805Z,100531.16
2023-05-22T18:07:46.359Z,100531.84
2023-05-22T18:10:15.281Z,100535.53
2023-05-22T18:12:44.359Z,100533.22
2023-05-22T18:15:13.394Z,100525.56
2023-05-22T18:17:47.859Z,100529.53
2023-05-22T18:20:20.175Z,100525.19
2023-05-22T18:22:49.301Z,100521.84
2023-05-22T18:25:18.176Z,100528.69
2023-05-22T18:27:47.402Z,100527.19
2023-05-22T18:30:16.816Z,100528.84
2023-05-22T18:32:46.111Z,100525.28
2023-05-22T18:35:15.166Z,100519.53
2023-05-22T18:37:46.120Z,100532.34
2023-05-22T18:40:15.384Z,100523.59
2023-05-22T18:42:44.519Z,100530.50
2023-05-22T18:45:13.666Z,100530.81
2023-05-22T18:47:42.814Z,100532.25
2023-05-22T18:50:13.103Z,100528.91
2023-05-22T18:52:42.351Z,100533.84
2023-05-22T18:55:12.781Z,100537.78
2023-05-22T18:57:41.837Z,100537.72
2023-05-22T19:00:12.246Z,100540.66
2023-05-22T19:02:41.433Z,100535.53
2023-05-22T19:05:11.495Z,100536.25
2023-05-22T19:07:40.667Z,100533.72
2023-05-22T19:10:11.275Z,100538.00
2023-05-22T19:12:41.696Z,100541.00
2023-05-22T19:15:12.272Z,100540.75
2023-05-22T19:17:41.465Z,100546.28
2023-05-22T19:20:12.307Z,100543.25
2023-05-22T19:22:41.450Z,100539.78
2023-05-22T19:25:11.116Z,100548.09
2023-05-22T19:27:41.506Z,100549.25
2023-05-22T19:30:11.280Z,100546.78
2023-05-22T19:32:40.400Z,100545.00
2023-05-22T19:35:10.498Z,100543.06
2023-05-22T19:37:42.579Z,100542.09
2023-05-22T19:40:12.173Z,100538.34
2023-05-22T19:42:43.597Z,100537.06
2023-05-22T19:45:12.608Z,100536.81
2023-05-22T19:47:41.757Z,100540.31
2023-05-22T19:50:11.666Z,100540.06
2023-05-22T19:52:40.919Z,100536.84
2023-05-22T19:55:11.006Z,100537.81
2023-05-22T19:57:40.117Z,100537.97
2023-05-22T20:00:11.787Z,100536.56
2023-05-22T20:02:41.185Z,100538.69
2023-05-22T20:05:13.013Z,100533.22
2023-05-22T20:07:43.114Z,100533.94
2023-05-22T20:10:16.157Z,100530.31
2023-05-22T20:12:45.958Z,100533.53
2023-05-22T20:15:17.799Z,100532.97
2023-05-22T20:17:47.809Z,100521.22
2023-05-22T20:20:16.852Z,100530.56
2023-05-22T20:22:46.181Z,100534.34
2023-05-22T20:25:15.173Z,100525.84
2023-05-22T20:27:44.233Z,100519.81
2023-05-22T20:30:17.482Z,100520.94
2023-05-22T20:32:47.063Z,100521.06
2023-05-22T20:35:18.921Z,100517.94
2023-05-22T20:37:48.266Z,100517.25
2023-05-22T20:40:17.528Z,100526.47
2023-05-22T20:42:47.630Z,100513.34
2023-05-22T20:45:17.777Z,100521.56
2023-05-22T20:47:46.882Z,100520.03
2023-05-22T20:50:16.705Z,100522.25
2023-05-22T20:52:46.003Z,100518.59
2023-05-22T20:55:17.688Z,100516.78
2023-05-22T20:57:46.880Z,100513.56
2023-05-22T21:00:17.852Z,100512.56
2023-05-22T21:02:46.991Z,100517.13
2023-05-22T21:05:16.079Z,100519.63
2023-05-22T21:07:45.116Z,100519.47
2023-05-22T21:10:13.926Z,100520.72
2023-05-22T21:12:43.108Z,100526.41
2023-05-22T21:15:13.001Z,100518.03
2023-05-22T21:17:43.458Z,100520.09
2023-05-22T21:20:12.637Z,100505.00
2023-05-22T21:22:41.611Z,100510.44
2023-05-22T21:25:11.351Z,100504.69
2023-05-22T21:27:40.945Z,100504.38
2023-05-22T21:30:15.218Z,100510.66
2023-05-22T21:32:45.714Z,100506.47
2023-05-22T21:35:14.611Z,100510.81
2023-05-22T21:37:43.596Z,100512.16
2023-05-22T21:40:13.692Z,100511.53
2023-05-22T21:42:47.123Z,100520.44
2023-05-22T21:45:16.441Z,100515.56
2023-05-22T21:47:46.805Z,100518.59
2023-05-22T21:50:15.734Z,100518.16
2023-05-22T21:52:44.718Z,100512.16
2023-05-22T21:55:13.755Z,100517.13
2023-05-22T21:57:42.792Z,100515.84
2023-05-22T22:00:13.560Z,100514.13
2023-05-22T22:02:43.253Z,100509.97
2023-05-22T22:05:13.545Z,100508.00
2023-05-22T22:07:42.731Z,100509.34
2023-05-22T22:10:12.394Z,100508.50
2023-05-22T22:12:41.456Z,100510.84
2023-05-22T22:15:14.147Z,100511.94
2023-05-22T22:17:43.210Z,100514.13
2023-05-22T22:20:13.600Z,100514.00
2023-05-22T22:22:42.659Z,100509.91
2023-05-22T22:25:12.124Z,100507.41
2023-05-22T22:27:41.202Z,100506.81
2023-05-22T22:30:11.628Z,100510.44
2023-05-22T22:32:40.740Z,100503.34
2023-05-22T22:35:11.588Z,100506.09
2023-05-22T22:37:42.729Z,100502.03
2023-05-22T22:40:12.106Z,100500.22
2023-05-22T22:42:41.162Z,100508.88
2023-05-22T22:45:11.415Z,100504.81
2023-05-22T22:47:40.927Z,100507.84
2023-05-22T22:50:11.020Z,100494.25
2023-05-22T22:52:45.359Z,100504.00
2023-05-22T22:55:14.562Z,100498.97
2023-05-22T22:57:44.731Z,100489.16
2023-05-22T23:00:16.133Z,100498.28
2023-05-22T23:02:45.376Z,100493.13
2023-05-22T23:05:14.915Z,100486.41
2023-05-22T23:07:45.546Z,100495.69
2023-05-22T23:10:15.634Z,100489.78
2023-05-22T23:12:44.843Z,100484.16
2023-05-22T23:15:14.132Z,100474.28
2023-05-22T23:17:43.200Z,100472.34
2023-05-22T23:20:12.753Z,100470.22
2023-05-22T23:22:41.784Z,100469.47
2023-05-22T23:25:12.265Z,100471.41
2023-05-22T23:27:42.041Z,100468.19
2023-05-22T23:30:11.778Z,100468.53
2023-05-22T23:32:40.874Z,100468.28
2023-05-22T23:35:11.233Z,100464.13
2023-05-22T23:37:40.261Z,100457.50
2023-05-22T23:40:12.060Z,100458.22
2023-05-22T23:42:41.340Z,100464.00
2023-05-22T23:45:10.469Z,100463.41
2023-05-22T23:47:39.528Z,100464.84
2023-05-22T23:50:09.543Z,100458.00
2023-05-22T23:52:38.622Z,100456.47
2023-05-22T23:55:09.519Z,100453.81
2023-05-22T23:57:40.032Z,100452.25
